sensor_id;sensor_type;location;lat;lon;timestamp;pressure;altitude;pressure_sealevel;temperature;humidity
10940;BME280;5522;42.696;23.494;2023-09-19T00:01:33;53847.78;;;-139.68;100.00
10940;BME280;5522;42.696;23.494;2023-09-19T00:04:03;53871.91;;;-139.68;100.00
10940;BME280;5522;42.696;23.494;2023-09-19T00:06:35;53867.88;;;-139.68;100.00
10940;BME280;5522;42.696;23.494;2023-09-19T00:09:02;53881.97;;;-139.68;100.00
10940;BME280;5522;42.696;23.494;2023-09-19T00:11:29;53888.00;;;-139.68;100.00
10940;BME280;5522;42.696;23.494;2023-09-19T00:13:56;53888.00;;;-139.68;100.00
10940;BME280;5522;42.696;23.494;2023-09-19T00:16:25;53875.94;;;-139.68;100.00
10940;BME280;5522;42.696;23.494;2023-09-19T00:18:52;53894.03;;;-139.68;100.00
10940;BME280;5522;42.696;23.494;2023-09-19T00:23:55;53843.75;;;-139.68;100.00
10940;BME280;5522;42.696;23.494;2023-09-19T00:26:22;53857.84;;;-139.68;100.00
10940;BME280;5522;42.696;23.494;2023-09-19T00:28:52;53859.84;;;-139.68;100.00
10940;BME280;5522;42.696;23.494;2023-09-19T00:31:20;53857.84;;;-139.68;100.00
10940;BME280;5522;42.696;23.494;2023-09-19T00:33:50;53859.84;;;-139.68;100.00
10940;BME280;5522;42.696;23.494;2023-09-19T00:36:18;53871.91;;;-139.68;100.00
10940;BME280;5522;42.696;23.494;2023-09-19T00:38:45;53896.03;;;-139.68;100.00
10940;BME280;5522;42.696;23.494;2023-09-19T00:41:13;53851.81;;;-139.68;100.00
10940;BME280;5522;42.696;23.494;2023-09-19T00:43:40;53867.88;;;-139.68;100.00
10940;BME280;5522;42.696;23.494;2023-09-19T00:46:07;53908.09;;;-139.68;100.00
10940;BME280;5522;42.696;23.494;2023-09-19T00:48:38;53839.75;;;-139.68;100.00
10940;BME280;5522;42.696;23.494;2023-09-19T00:51:11;53869.91;;;-139.68;100.00
10940;BME280;5522;42.696;23.494;2023-09-19T00:53:39;53902.06;;;-139.68;100.00
10940;BME280;5522;42.696;23.494;2023-09-19T00:56:11;53888.00;;;-139.68;100.00
10940;BME280;5522;42.696;23.494;2023-09-19T00:58:39;53879.94;;;-139.68;100.00
10940;BME280;5522;42.696;23.494;2023-09-19T01:06:35;53879.94;;;-139.68;100.00
10940;BME280;5522;42.696;23.494;2023-09-19T01:09:03;53863.88;;;-139.68;100.00
10940;BME280;5522;42.696;23.494;2023-09-19T01:11:33;53851.81;;;-139.68;100.00
10940;BME280;5522;42.696;23.494;2023-09-19T01:14:15;53888.00;;;-139.68;100.00
10940;BME280;5522;42.696;23.494;2023-09-19T01:16:53;53823.66;;;-139.68;100.00
10940;BME280;5522;42.696;23.494;2023-09-19T01:19:45;53896.03;;;-139.68;100.00
10940;BME280;5522;42.696;23.494;2023-09-19T01:22:26;53865.88;;;-139.68;100.00
10940;BME280;5522;42.696;23.494;2023-09-19T01:25:33;53892.00;;;-139.68;100.00
10940;BME280;5522;42.696;23.494;2023-09-19T01:28:20;53871.91;;;-139.68;100.00
10940;BME280;5522;42.696;23.494;2023-09-19T01:30:57;53853.81;;;-139.68;100.00
10940;BME280;5522;42.696;23.494;2023-09-19T01:33:25;53930.22;;;-139.68;100.00
10940;BME280;5522;42.696;23.494;2023-09-19T01:35:52;53890.00;;;-139.68;100.00
10940;BME280;5522;42.696;23.494;2023-09-19T01:38:23;53877.94;;;-139.68;100.00
10940;BME280;5522;42.696;23.494;2023-09-19T01:40:57;53908.09;;;-139.68;100.00
10940;BME280;5522;42.696;23.494;2023-09-19T01:43:33;53892.00;;;-139.68;100.00
10940;BME280;5522;42.696;23.494;2023-09-19T01:46:07;53843.75;;;-139.68;100.00
10940;BME280;5522;42.696;23.494;2023-09-19T01:48:41;53940.25;;;-139.68;100.00
10940;BME280;5522;42.696;23.494;2023-09-19T01:51:14;53867.88;;;-139.68;100.00
10940;BME280;5522;42.696;23.494;2023-09-19T01:53:51;53873.91;;;-139.68;100.00
10940;BME280;5522;42.696;23.494;2023-09-19T01:56:35;53920.16;;;-139.68;100.00
10940;BME280;5522;42.696;23.494;2023-09-19T01:59:07;53890.00;;;-139.68;100.00
10940;BME280;5522;42.696;23.494;2023-09-19T02:01:39;53883.97;;;-139.68;100.00
10940;BME280;5522;42.696;23.494;2023-09-19T02:04:07;53892.00;;;-139.68;100.00
10940;BME280;5522;42.696;23.494;2023-09-19T02:06:34;53904.06;;;-139.68;100.00
10940;BME280;5522;42.696;23.494;2023-09-19T02:09:01;53879.94;;;-139.68;100.00
10940;BME280;5522;42.696;23.494;2023-09-19T02:11:29;53892.00;;;-139.68;100.00
10940;BME280;5522;42.696;23.494;2023-09-19T02:13:56;53892.00;;;-139.68;100.00
10940;BME280;5522;42.696;23.494;2023-09-19T02:16:25;53879.94;;;-139.68;100.00
10940;BME280;5522;42.696;23.494;2023-09-19T02:18:53;53885.97;;;-139.68;100.00
10940;BME280;5522;42.696;23.494;2023-09-19T02:21:20;53857.84;;;-139.68;100.00
10940;BME280;5522;42.696;23.494;2023-09-19T02:23:48;53847.78;;;-139.68;100.00
10940;BME280;5522;42.696;23.494;2023-09-19T02:26:15;53912.13;;;-139.68;100.00
10940;BME280;5522;42.696;23.494;2023-09-19T02:28:41;53892.00;;;-139.68;100.00
10940;BME280;5522;42.696;23.494;2023-09-19T02:31:08;53873.91;;;-139.68;100.00
10940;BME280;5522;42.696;23.494;2023-09-19T02:33:36;53853.81;;;-139.68;100.00
10940;BME280;5522;42.696;23.494;2023-09-19T02:36:06;53885.97;;;-139.68;100.00
10940;BME280;5522;42.696;23.494;2023-09-19T02:38:33;53875.94;;;-139.68;100.00
10940;BME280;5522;42.696;23.494;2023-09-19T02:41:00;53885.97;;;-139.68;100.00
10940;BME280;5522;42.696;23.494;2023-09-19T02:43:27;53892.00;;;-139.68;100.00
10940;BME280;5522;42.696;23.494;2023-09-19T02:45:54;53892.00;;;-139.68;100.00
10940;BME280;5522;42.696;23.494;2023-09-19T02:48:24;53879.94;;;-139.68;100.00
10940;BME280;5522;42.696;23.494;2023-09-19T02:50:51;53888.00;;;-139.68;100.00
10940;BME280;5522;42.696;23.494;2023-09-19T02:53:20;53892.00;;;-139.68;100.00
10940;BME280;5522;42.696;23.494;2023-09-19T02:55:49;53839.75;;;-139.68;100.00
10940;BME280;5522;42.696;23.494;2023-09-19T02:58:19;53879.94;;;-139.68;100.00
10940;BME280;5522;42.696;23.494;2023-09-19T03:00:46;53855.81;;;-139.68;100.00
10940;BME280;5522;42.696;23.494;2023-09-19T03:03:17;53873.91;;;-139.68;100.00
10940;BME280;5522;42.696;23.494;2023-09-19T03:05:44;53871.91;;;-139.68;100.00
10940;BME280;5522;42.696;23.494;2023-09-19T03:08:12;53867.88;;;-139.68;100.00
10940;BME280;5522;42.696;23.494;2023-09-19T03:10:42;53851.81;;;-139.68;100.00
10940;BME280;5522;42.696;23.494;2023-09-19T03:13:09;53849.78;;;-139.68;100.00
10940;BME280;5522;42.696;23.494;2023-09-19T03:15:36;53890.00;;;-139.68;100.00
10940;BME280;5522;42.696;23.494;2023-09-19T03:18:04;53932.22;;;-139.68;100.00
10940;BME280;5522;42.696;23.494;2023-09-19T03:20:31;53914.13;;;-139.68;100.00
10940;BME280;5522;42.696;23.494;2023-09-19T03:22:58;53857.84;;;-139.68;100.00
10940;BME280;5522;42.696;23.494;2023-09-19T03:25:25;53847.78;;;-139.68;100.00
10940;BME280;5522;42.696;23.494;2023-09-19T03:27:56;53916.13;;;-139.68;100.00
10940;BME280;5522;42.696;23.494;2023-09-19T03:30:23;53855.81;;;-139.68;100.00
10940;BME280;5522;42.696;23.494;2023-09-19T03:32:50;53875.94;;;-139.68;100.00
10940;BME280;5522;42.696;23.494;2023-09-19T03:35:18;53879.94;;;-139.68;100.00
10940;BME280;5522;42.696;23.494;2023-09-19T03:37:45;53863.88;;;-139.68;100.00
10940;BME280;5522;42.696;23.494;2023-09-19T03:40:12;53879.94;;;-139.68;100.00
10940;BME280;5522;42.696;23.494;2023-09-19T03:42:39;53867.88;;;-139.68;100.00
10940;BME280;5522;42.696;23.494;2023-09-19T03:45:09;53924.16;;;-139.68;100.00
10940;BME280;5522;42.696;23.494;2023-09-19T03:47:37;53902.06;;;-139.68;100.00
10940;BME280;5522;42.696;23.494;2023-09-19T03:50:05;53898.03;;;-139.68;100.00
10940;BME280;5522;42.696;23.494;2023-09-19T03:52:33;53881.97;;;-139.68;100.00
10940;BME280;5522;42.696;23.494;2023-09-19T03:55:00;53875.94;;;-139.68;100.00
10940;BME280;5522;42.696;23.494;2023-09-19T03:57:28;53879.94;;;-139.68;100.00
10940;BME280;5522;42.696;23.494;2023-09-19T03:59:54;53892.00;;;-139.68;100.00
10940;BME280;5522;42.696;23.494;2023-09-19T04:02:23;53896.03;;;-139.68;100.00
10940;BME280;5522;42.696;23.494;2023-09-19T04:04:50;53857.84;;;-139.68;100.00
10940;BME280;5522;42.696;23.494;2023-09-19T04:07:18;53908.09;;;-139.68;100.00
10940;BME280;5522;42.696;23.494;2023-09-19T04:09:47;53912.13;;;-139.68;100.00
10940;BME280;5522;42.696;23.494;2023-09-19T04:12:14;53885.97;;;-139.68;100.00
10940;BME280;5522;42.696;23.494;2023-09-19T04:14:43;53879.94;;;-139.68;100.00
10940;BME280;5522;42.696;23.494;2023-09-19T04:17:10;53863.88;;;-139.68;100.00
10940;BME280;5522;42.696;23.494;2023-09-19T04:19:38;53916.13;;;-139.68;100.00
10940;BME280;5522;42.696;23.494;2023-09-19T04:22:06;53871.91;;;-139.68;100.00
10940;BME280;5522;42.696;23.494;2023-09-19T04:24:33;53898.03;;;-139.68;100.00
10940;BME280;5522;42.696;23.494;2023-09-19T04:27:00;53898.03;;;-139.68;100.00
10940;BME280;5522;42.696;23.494;2023-09-19T04:29:27;53888.00;;;-139.68;100.00
10940;BME280;5522;42.696;23.494;2023-09-19T04:31:54;53926.19;;;-139.68;100.00
10940;BME280;5522;42.696;23.494;2023-09-19T04:34:22;53888.00;;;-139.68;100.00
10940;BME280;5522;42.696;23.494;2023-09-19T04:36:51;53871.91;;;-139.68;100.00
10940;BME280;5522;42.696;23.494;2023-09-19T04:39:18;53863.88;;;-139.68;100.00
10940;BME280;5522;42.696;23.494;2023-09-19T04:41:46;53888.00;;;-139.68;100.00
10940;BME280;5522;42.696;23.494;2023-09-19T04:44:13;53912.13;;;-139.68;100.00
10940;BME280;5522;42.696;23.494;2023-09-19T04:46:40;53863.88;;;-139.68;100.00
10940;BME280;5522;42.696;23.494;2023-09-19T04:49:07;53894.03;;;-139.68;100.00
10940;BME280;5522;42.696;23.494;2023-09-19T04:51:33;53910.09;;;-139.68;100.00
10940;BME280;5522;42.696;23.494;2023-09-19T04:54:03;53885.97;;;-139.68;100.00
10940;BME280;5522;42.696;23.494;2023-09-19T04:56:31;53857.84;;;-139.68;100.00
10940;BME280;5522;42.696;23.494;2023-09-19T04:58:58;53875.94;;;-139.68;100.00
10940;BME280;5522;42.696;23.494;2023-09-19T05:01:25;53888.00;;;-139.68;100.00
10940;BME280;5522;42.696;23.494;2023-09-19T05:03:52;53916.13;;;-139.68;100.00
10940;BME280;5522;42.696;23.494;2023-09-19T05:06:19;53916.13;;;-139.68;100.00
10940;BME280;5522;42.696;23.494;2023-09-19T05:08:47;53898.03;;;-139.68;100.00
10940;BME280;5522;42.696;23.494;2023-09-19T05:11:17;53873.91;;;-139.68;100.00
10940;BME280;5522;42.696;23.494;2023-09-19T05:13:43;53881.97;;;-139.68;100.00
10940;BME280;5522;42.696;23.494;2023-09-19T05:16:10;53883.97;;;-139.68;100.00
10940;BME280;5522;42.696;23.494;2023-09-19T05:18:37;53875.94;;;-139.68;100.00
10940;BME280;5522;42.696;23.494;2023-09-19T05:21:04;53892.00;;;-139.68;100.00
10940;BME280;5522;42.696;23.494;2023-09-19T05:23:31;53859.84;;;-139.68;100.00
10940;BME280;5522;42.696;23.494;2023-09-19T05:25:58;53912.13;;;-139.68;100.00
10940;BME280;5522;42.696;23.494;2023-09-19T05:28:26;53877.94;;;-139.68;97.28
10940;BME280;5522;42.696;23.494;2023-09-19T05:30:53;53908.09;;;-139.68;92.13
10940;BME280;5522;42.696;23.494;2023-09-19T05:33:20;53879.94;;;-139.68;88.37
10940;BME280;5522;42.696;23.494;2023-09-19T05:35:48;53875.94;;;-139.68;86.49
10940;BME280;5522;42.696;23.494;2023-09-19T05:38:15;53843.75;;;-139.68;85.17
10940;BME280;5522;42.696;23.494;2023-09-19T05:40:45;53873.91;;;-139.68;81.94
10940;BME280;5522;42.696;23.494;2023-09-19T05:43:12;53910.09;;;-139.68;81.84
10940;BME280;5522;42.696;23.494;2023-09-19T05:45:41;53859.84;;;-139.68;79.79
10940;BME280;5522;42.696;23.494;2023-09-19T05:48:09;53888.00;;;-139.68;76.80
10940;BME280;5522;42.696;23.494;2023-09-19T05:50:37;53900.06;;;-139.68;70.68
10940;BME280;5522;42.696;23.494;2023-09-19T05:53:04;53904.06;;;-139.68;69.70
10940;BME280;5522;42.696;23.494;2023-09-19T05:55:31;53879.94;;;-139.68;68.79
10940;BME280;5522;42.696;23.494;2023-09-19T05:57:57;53898.03;;;-139.68;65.77
10940;BME280;5522;42.696;23.494;2023-09-19T06:00:25;53902.06;;;-139.68;70.13
10940;BME280;5522;42.696;23.494;2023-09-19T06:02:57;53883.97;;;-139.68;72.63
10940;BME280;5522;42.696;23.494;2023-09-19T06:05:25;53904.06;;;-139.68;71.94
10940;BME280;5522;42.696;23.494;2023-09-19T06:07:53;53885.97;;;-139.68;68.35
10940;BME280;5522;42.696;23.494;2023-09-19T06:10:20;53908.09;;;-139.68;64.56
10940;BME280;5522;42.696;23.494;2023-09-19T06:12:48;53883.97;;;-139.68;64.79
10940;BME280;5522;42.696;23.494;2023-09-19T06:15:16;53900.06;;;-139.68;62.90
10940;BME280;5522;42.696;23.494;2023-09-19T06:17:47;53863.88;;;-139.68;60.85
10940;BME280;5522;42.696;23.494;2023-09-19T06:20:16;53912.13;;;-139.68;53.40
10940;BME280;5522;42.696;23.494;2023-09-19T06:22:44;53888.00;;;-139.68;54.59
10940;BME280;5522;42.696;23.494;2023-09-19T06:25:12;53904.06;;;-139.68;54.22
10940;BME280;5522;42.696;23.494;2023-09-19T06:27:44;53883.97;;;-139.68;61.00
10940;BME280;5522;42.696;23.494;2023-09-19T06:30:12;53928.19;;;-139.68;68.75
10940;BME280;5522;42.696;23.494;2023-09-19T06:32:40;53954.31;;;-139.68;78.75
10940;BME280;5522;42.696;23.494;2023-09-19T06:35:09;53922.16;;;-139.68;87.49
10940;BME280;5522;42.696;23.494;2023-09-19T06:37:38;53900.06;;;-139.68;91.44
10940;BME280;5522;42.696;23.494;2023-09-19T06:40:08;53950.31;;;-139.68;92.09
10940;BME280;5522;42.696;23.494;2023-09-19T06:42:41;53934.22;;;-139.68;91.29
10940;BME280;5522;42.696;23.494;2023-09-19T06:45:08;53902.06;;;-139.68;89.49
10940;BME280;5522;42.696;23.494;2023-09-19T06:47:37;53908.09;;;-139.68;83.79
10940;BME280;5522;42.696;23.494;2023-09-19T06:50:03;53912.13;;;-139.68;82.02
10940;BME280;5522;42.696;23.494;2023-09-19T06:52:31;53948.31;;;-139.68;77.10
10940;BME280;5522;42.696;23.494;2023-09-19T06:55:00;53946.28;;;-139.68;80.40
10940;BME280;5522;42.696;23.494;2023-09-19T06:57:28;53924.16;;;-139.68;84.22
10940;BME280;5522;42.696;23.494;2023-09-19T06:59:56;53930.22;;;-139.68;85.54
10940;BME280;5522;42.696;23.494;2023-09-19T07:02:22;53910.09;;;-139.68;85.08
10940;BME280;5522;42.696;23.494;2023-09-19T07:04:49;53936.22;;;-139.68;83.58
10940;BME280;5522;42.696;23.494;2023-09-19T07:07:16;53908.09;;;-139.68;86.13
10940;BME280;5522;42.696;23.494;2023-09-19T07:09:43;53908.09;;;-139.68;85.26
10940;BME280;5522;42.696;23.494;2023-09-19T07:12:11;53922.16;;;-139.68;85.77
10940;BME280;5522;42.696;23.494;2023-09-19T07:14:38;53908.09;;;-139.68;84.66
10940;BME280;5522;42.696;23.494;2023-09-19T07:17:05;53881.97;;;-139.68;85.85
10940;BME280;5522;42.696;23.494;2023-09-19T07:19:33;53940.25;;;-139.68;85.95
10940;BME280;5522;42.696;23.494;2023-09-19T07:22:00;53900.06;;;-139.68;87.79
10940;BME280;5522;42.696;23.494;2023-09-19T07:24:28;53920.16;;;-139.68;87.85
10940;BME280;5522;42.696;23.494;2023-09-19T07:26:55;53924.16;;;-139.68;85.84
10940;BME280;5522;42.696;23.494;2023-09-19T07:29:23;53924.16;;;-139.68;83.16
10940;BME280;5522;42.696;23.494;2023-09-19T07:31:51;53900.06;;;-139.68;81.05
10940;BME280;5522;42.696;23.494;2023-09-19T07:34:18;53940.25;;;-139.68;81.39
10940;BME280;5522;42.696;23.494;2023-09-19T07:36:46;53924.16;;;-139.68;79.07
10940;BME280;5522;42.696;23.494;2023-09-19T07:39:19;53908.09;;;-139.68;81.33
10940;BME280;5522;42.696;23.494;2023-09-19T07:41:46;53902.06;;;-139.68;79.50
10940;BME280;5522;42.696;23.494;2023-09-19T07:44:14;53904.06;;;-139.68;78.29
10940;BME280;5522;42.696;23.494;2023-09-19T07:46:42;53900.06;;;-139.68;75.89
10940;BME280;5522;42.696;23.494;2023-09-19T07:49:09;53920.16;;;-139.68;72.42
10940;BME280;5522;42.696;23.494;2023-09-19T07:51:36;53928.19;;;-139.68;76.53
10940;BME280;5522;42.696;23.494;2023-09-19T07:54:04;53916.13;;;-139.68;75.31
10940;BME280;5522;42.696;23.494;2023-09-19T07:56:31;53932.22;;;-139.68;77.31
10940;BME280;5522;42.696;23.494;2023-09-19T07:58:59;53912.13;;;-139.68;76.40
10940;BME280;5522;42.696;23.494;2023-09-19T08:01:26;53906.06;;;-139.68;79.04
10940;BME280;5522;42.696;23.494;2023-09-19T08:03:54;53922.16;;;-139.68;78.26
10940;BME280;5522;42.696;23.494;2023-09-19T08:06:21;53928.19;;;-139.68;79.96
10940;BME280;5522;42.696;23.494;2023-09-19T08:08:50;53898.03;;;-139.68;78.13
10940;BME280;5522;42.696;23.494;2023-09-19T08:11:19;53924.16;;;-139.68;76.67
10940;BME280;5522;42.696;23.494;2023-09-19T08:13:46;53904.06;;;-139.68;72.95
10940;BME280;5522;42.696;23.494;2023-09-19T08:16:14;53916.13;;;-139.68;73.13
10940;BME280;5522;42.696;23.494;2023-09-19T08:18:41;53896.03;;;-139.68;73.05
10940;BME280;5522;42.696;23.494;2023-09-19T08:21:11;53926.19;;;-139.68;67.25
10940;BME280;5522;42.696;23.494;2023-09-19T08:23:38;53926.19;;;-139.68;65.88
10940;BME280;5522;42.696;23.494;2023-09-19T08:26:05;53904.06;;;-139.68;62.09
10940;BME280;5522;42.696;23.494;2023-09-19T08:28:33;53904.06;;;-139.68;60.96
10940;BME280;5522;42.696;23.494;2023-09-19T08:31:02;53926.19;;;-139.68;56.67
10940;BME280;5522;42.696;23.494;2023-09-19T08:33:31;53918.16;;;-139.68;52.24
10940;BME280;5522;42.696;23.494;2023-09-19T08:35:58;53896.03;;;-139.68;51.81
10940;BME280;5522;42.696;23.494;2023-09-19T08:38:27;53904.06;;;-139.68;52.06
10940;BME280;5522;42.696;23.494;2023-09-19T08:40:57;53912.13;;;-139.68;53.78
10940;BME280;5522;42.696;23.494;2023-09-19T08:43:25;53885.97;;;-139.68;51.69
10940;BME280;5522;42.696;23.494;2023-09-19T08:45:58;53869.91;;;-139.68;53.75
10940;BME280;5522;42.696;23.494;2023-09-19T08:48:29;53883.97;;;-139.68;50.34
10940;BME280;5522;42.696;23.494;2023-09-19T08:51:02;53904.06;;;-139.68;50.69
10940;BME280;5522;42.696;23.494;2023-09-19T08:53:38;53922.16;;;-139.68;54.38
10940;BME280;5522;42.696;23.494;2023-09-19T08:56:10;53892.00;;;-139.68;51.62
10940;BME280;5522;42.696;23.494;2023-09-19T08:58:44;53888.00;;;-139.68;50.50
10940;BME280;5522;42.696;23.494;2023-09-19T09:01:14;53900.06;;;-139.68;54.01
10940;BME280;5522;42.696;23.494;2023-09-19T09:03:42;53890.00;;;-139.68;49.46
10940;BME280;5522;42.696;23.494;2023-09-19T09:06:14;53924.16;;;-139.68;53.02
10940;BME280;5522;42.696;23.494;2023-09-19T09:08:43;53914.13;;;-139.68;51.64
10940;BME280;5522;42.696;23.494;2023-09-19T09:11:11;53912.13;;;-139.68;49.89
10940;BME280;5522;42.696;23.494;2023-09-19T09:13:38;53900.06;;;-139.68;45.16
10940;BME280;5522;42.696;23.494;2023-09-19T09:16:07;53847.78;;;-139.68;45.18
10940;BME280;5522;42.696;23.494;2023-09-19T09:18:35;53940.25;;;-139.68;42.91
10940;BME280;5522;42.696;23.494;2023-09-19T09:21:02;53928.19;;;-139.68;42.56
10940;BME280;5522;42.696;23.494;2023-09-19T09:23:31;53928.19;;;-139.68;43.46
10940;BME280;5522;42.696;23.494;2023-09-19T09:26:00;53910.09;;;-139.68;42.67
10940;BME280;5522;42.696;23.494;2023-09-19T09:28:29;53912.13;;;-139.68;39.76
10940;BME280;5522;42.696;23.494;2023-09-19T09:30:57;53908.09;;;-139.68;38.10
10940;BME280;5522;42.696;23.494;2023-09-19T09:33:25;53912.13;;;-139.68;35.02
10940;BME280;5522;42.696;23.494;2023-09-19T09:35:53;53922.16;;;-139.68;34.15
10940;BME280;5522;42.696;23.494;2023-09-19T09:38:23;53918.16;;;-139.68;34.12
10940;BME280;5522;42.696;23.494;2023-09-19T09:40:54;53908.09;;;-139.68;32.07
10940;BME280;5522;42.696;23.494;2023-09-19T09:43:29;53924.16;;;-139.68;32.50
10940;BME280;5522;42.696;23.494;2023-09-19T09:46:11;53932.22;;;-139.68;30.66
10940;BME280;5522;42.696;23.494;2023-09-19T09:49:02;53928.19;;;-139.68;32.05
10940;BME280;5522;42.696;23.494;2023-09-19T09:51:46;53936.22;;;-139.68;33.85
10940;BME280;5522;42.696;23.494;2023-09-19T09:54:23;53968.41;;;-139.68;35.48
10940;BME280;5522;42.696;23.494;2023-09-19T09:56:54;53948.31;;;-139.68;34.03
10940;BME280;5522;42.696;23.494;2023-09-19T09:59:46;53934.22;;;-139.68;35.12
10940;BME280;5522;42.696;23.494;2023-09-19T10:02:14;53990.50;;;-139.68;35.61
10940;BME280;5522;42.696;23.494;2023-09-19T10:04:46;53944.28;;;-139.68;37.60
10940;BME280;5522;42.696;23.494;2023-09-19T10:07:25;53964.38;;;-139.68;39.35
10940;BME280;5522;42.696;23.494;2023-09-19T10:09:55;53988.50;;;-139.68;39.22
10940;BME280;5522;42.696;23.494;2023-09-19T10:12:31;53970.41;;;-139.68;39.45
10940;BME280;5522;42.696;23.494;2023-09-19T10:15:00;53970.41;;;-139.68;38.82
10940;BME280;5522;42.696;23.494;2023-09-19T10:17:30;53948.31;;;-139.68;37.60
10940;BME280;5522;42.696;23.494;2023-09-19T10:20:01;53944.28;;;-139.68;37.80
10940;BME280;5522;42.696;23.494;2023-09-19T10:22:35;53934.22;;;-139.68;37.63
10940;BME280;5522;42.696;23.494;2023-09-19T10:25:04;53936.22;;;-139.68;35.21
10940;BME280;5522;42.696;23.494;2023-09-19T10:27:32;53962.38;;;-139.68;36.71
10940;BME280;5522;42.696;23.494;2023-09-19T10:30:05;53968.41;;;-139.68;37.80
10940;BME280;5522;42.696;23.494;2023-09-19T10:32:35;53944.28;;;-139.68;38.14
10940;BME280;5522;42.696;23.494;2023-09-19T10:35:03;53964.38;;;-139.68;38.17
10940;BME280;5522;42.696;23.494;2023-09-19T10:37:32;53952.31;;;-139.68;38.58
10940;BME280;5522;42.696;23.494;2023-09-19T10:40:00;53946.28;;;-139.68;38.57
10940;BME280;5522;42.696;23.494;2023-09-19T10:42:29;53968.41;;;-139.68;40.59
10940;BME280;5522;42.696;23.494;2023-09-19T10:45:00;53942.25;;;-139.68;40.58
10940;BME280;5522;42.696;23.494;2023-09-19T10:47:34;54000.56;;;-139.68;40.59
10940;BME280;5522;42.696;23.494;2023-09-19T10:50:03;53960.38;;;-139.68;41.50
10940;BME280;5522;42.696;23.494;2023-09-19T10:52:31;53980.47;;;-139.68;42.50
10940;BME280;5522;42.696;23.494;2023-09-19T10:55:00;53960.38;;;-139.68;42.71
10940;BME280;5522;42.696;23.494;2023-09-19T10:57:27;54008.63;;;-139.68;39.84
10940;BME280;5522;42.696;23.494;2023-09-19T11:00:03;53952.31;;;-139.68;40.90
10940;BME280;5522;42.696;23.494;2023-09-19T11:03:18;53948.31;;;-139.68;40.56
10940;BME280;5522;42.696;23.494;2023-09-19T11:06:07;53966.38;;;-139.68;41.57
10940;BME280;5522;42.696;23.494;2023-09-19T11:09:06;53976.44;;;-139.68;38.98
10940;BME280;5522;42.696;23.494;2023-09-19T11:11:48;53978.47;;;-139.68;40.60
10940;BME280;5522;42.696;23.494;2023-09-19T11:14:30;53934.22;;;-139.68;42.47
10940;BME280;5522;42.696;23.494;2023-09-19T11:17:30;53934.22;;;-139.68;42.99
10940;BME280;5522;42.696;23.494;2023-09-19T11:20:21;53960.38;;;-139.68;43.03
10940;BME280;5522;42.696;23.494;2023-09-19T11:23:17;54004.59;;;-139.68;42.78
10940;BME280;5522;42.696;23.494;2023-09-19T11:25:48;53954.31;;;-139.68;40.08
10940;BME280;5522;42.696;23.494;2023-09-19T11:28:35;53964.38;;;-139.68;39.55
10940;BME280;5522;42.696;23.494;2023-09-19T11:34:45;53934.22;;;-139.68;41.11
10940;BME280;5522;42.696;23.494;2023-09-19T11:40:29;53980.47;;;-139.68;41.96
10940;BME280;5522;42.696;23.494;2023-09-19T11:42:56;53966.38;;;-139.68;43.23
10940;BME280;5522;42.696;23.494;2023-09-19T11:48:31;53960.38;;;-139.68;42.56
10940;BME280;5522;42.696;23.494;2023-09-19T11:51:00;53964.38;;;-139.68;44.04
10940;BME280;5522;42.696;23.494;2023-09-19T11:53:33;53960.38;;;-139.68;43.44
10940;BME280;5522;42.696;23.494;2023-09-19T11:56:05;53970.41;;;-139.68;43.94
10940;BME280;5522;42.696;23.494;2023-09-19T11:58:37;53940.25;;;-139.68;43.60
10940;BME280;5522;42.696;23.494;2023-09-19T12:01:05;53970.41;;;-139.68;43.79
10940;BME280;5522;42.696;23.494;2023-09-19T12:03:34;53956.34;;;-139.68;43.20
10940;BME280;5522;42.696;23.494;2023-09-19T12:06:11;53982.47;;;-139.68;43.33
10940;BME280;5522;42.696;23.494;2023-09-19T12:08:41;53960.38;;;-139.68;42.33
10940;BME280;5522;42.696;23.494;2023-09-19T12:11:13;53942.25;;;-139.68;42.41
10940;BME280;5522;42.696;23.494;2023-09-19T12:13:42;53992.53;;;-139.68;45.74
10940;BME280;5522;42.696;23.494;2023-09-19T12:16:12;53928.19;;;-139.68;42.26
10940;BME280;5522;42.696;23.494;2023-09-19T12:18:40;53974.44;;;-139.68;40.76
10940;BME280;5522;42.696;23.494;2023-09-19T12:21:21;53952.31;;;-139.68;40.43
10940;BME280;5522;42.696;23.494;2023-09-19T12:26:38;53940.25;;;-139.68;40.69
10940;BME280;5522;42.696;23.494;2023-09-19T12:29:11;53948.31;;;-139.68;44.00
10940;BME280;5522;42.696;23.494;2023-09-19T12:31:50;53978.47;;;-139.68;41.54
10940;BME280;5522;42.696;23.494;2023-09-19T12:34:20;53954.31;;;-139.68;44.81
10940;BME280;5522;42.696;23.494;2023-09-19T12:36:48;53956.34;;;-139.68;43.18
10940;BME280;5522;42.696;23.494;2023-09-19T12:39:24;53980.47;;;-139.68;42.31
10940;BME280;5522;42.696;23.494;2023-09-19T12:41:53;53988.50;;;-139.68;41.61
10940;BME280;5522;42.696;23.494;2023-09-19T12:44:21;53938.25;;;-139.68;41.85
10940;BME280;5522;42.696;23.494;2023-09-19T12:46:52;53956.34;;;-139.68;43.28
10940;BME280;5522;42.696;23.494;2023-09-19T12:49:20;53938.25;;;-139.68;42.75
10940;BME280;5522;42.696;23.494;2023-09-19T12:51:48;53948.31;;;-139.68;42.78
10940;BME280;5522;42.696;23.494;2023-09-19T12:54:16;53950.31;;;-139.68;44.28
10940;BME280;5522;42.696;23.494;2023-09-19T12:56:44;53988.50;;;-139.68;45.01
10940;BME280;5522;42.696;23.494;2023-09-19T12:59:15;53964.38;;;-139.68;43.16
10940;BME280;5522;42.696;23.494;2023-09-19T13:01:42;53962.38;;;-139.68;43.30
10940;BME280;5522;42.696;23.494;2023-09-19T13:04:14;53940.25;;;-139.68;42.43
10940;BME280;5522;42.696;23.494;2023-09-19T13:06:44;53944.28;;;-139.68;42.69
10940;BME280;5522;42.696;23.494;2023-09-19T13:09:11;53934.22;;;-139.68;43.06
10940;BME280;5522;42.696;23.494;2023-09-19T13:11:40;53936.22;;;-139.68;43.36